createdAt,value
2018-09-15T00:00:10.521Z,33.7
2018-09-15T00:01:12.956Z,33.7
2018-09-15T00:02:15.124Z,33.5
2018-09-15T00:03:17.559Z,33.7
2018-09-15T00:04:19.989Z,33.5
2018-09-15T00:05:22.428Z,33.5
2018-09-15T00:06:24.854Z,33.6
2018-09-15T00:07:27.287Z,33.7
2018-09-15T00:08:29.735Z,33.6
2018-09-15T00:09:32.156Z,33.8
2018-09-15T00:10:34.326Z,33.6
2018-09-15T00:11:36.759Z,33.7
2018-09-15T00:12:39.193Z,33.6
2018-09-15T00:13:41.627Z,33.7
2018-09-15T00:14:44.097Z,33.7
2018-09-15T00:15:46.254Z,33.7
2018-09-15T00:16:48.678Z,33.8
2018-09-15T00:17:51.104Z,33.7
2018-09-15T00:18:53.259Z,33.7
2018-09-15T00:19:55.693Z,33.8
2018-09-15T00:20:58.115Z,33.6
2018-09-15T00:22:00.546Z,33.6
2018-09-15T00:23:02.788Z,33.7
2018-09-15T00:24:05.570Z,33.7
2018-09-15T00:25:08.021Z,33.7
2018-09-15T00:26:10.479Z,33.6
2018-09-15T00:27:12.926Z,33.7
2018-09-15T00:28:15.077Z,33.7
2018-09-15T00:29:17.506Z,33.7
2018-09-15T00:30:19.959Z,33.7
2018-09-15T00:31:22.382Z,33.8
2018-09-15T00:32:24.827Z,33.8
2018-09-15T00:33:27.263Z,33.6
2018-09-15T00:34:29.693Z,33.8
2018-09-15T00:35:32.116Z,33.6
2018-09-15T00:36:34.270Z,33.8
2018-09-15T00:37:36.700Z,33.8
2018-09-15T00:38:38.859Z,33.7
2018-09-15T00:39:41.297Z,33.8
2018-09-15T00:40:43.728Z,33.7
2018-09-15T00:41:45.945Z,33.8
2018-09-15T00:42:48.496Z,33.7
2018-09-15T00:43:50.652Z,33.7
2018-09-15T00:44:53.083Z,33.7
2018-09-15T00:45:55.545Z,33.8
2018-09-15T00:46:57.965Z,33.8
2018-09-15T00:48:00.402Z,33.8
2018-09-15T00:49:02.836Z,33.8
2018-09-15T00:50:05.267Z,33.8
2018-09-15T00:51:07.693Z,33.9
2018-09-15T00:52:09.842Z,33.8
2018-09-15T00:53:12.277Z,33.9
2018-09-15T00:54:14.742Z,33.7
2018-09-15T00:55:17.176Z,33.9
2018-09-15T00:56:19.311Z,33.8
2018-09-15T00:57:21.463Z,33.8
2018-09-15T00:58:23.624Z,33.9
2018-09-15T00:59:26.055Z,33.9
2018-09-15T01:00:28.207Z,33.8
2018-09-15T01:01:30.648Z,33.9
2018-09-15T01:02:33.122Z,33.7
2018-09-15T01:03:35.270Z,33.8
2018-09-15T01:04:37.705Z,33.7
2018-09-15T01:05:40.147Z,33.8
2018-09-15T01:06:42.580Z,33.9
2018-09-15T01:07:45.017Z,33.8
2018-09-15T01:08:47.447Z,33.9
2018-09-15T01:09:49.886Z,33.8
2018-09-15T01:10:52.314Z,33.7
2018-09-15T01:11:54.747Z,33.9
2018-09-15T01:12:57.180Z,33.9
2018-09-15T01:13:59.766Z,33.8
2018-09-15T01:15:02.526Z,33.9
2018-09-15T01:16:04.675Z,33.7
2018-09-15T01:17:07.103Z,33.8
2018-09-15T01:18:09.265Z,33.8
2018-09-15T01:19:11.692Z,33.9
2018-09-15T01:20:14.128Z,33.7
2018-09-15T01:21:16.561Z,33.9
2018-09-15T01:22:18.990Z,33.8
2018-09-15T01:23:21.419Z,33.8
2018-09-15T01:24:23.863Z,33.9
2018-09-15T01:25:26.295Z,33.8
2018-09-15T01:26:28.458Z,33.8
2018-09-15T01:27:30.890Z,33.8
2018-09-15T01:28:33.039Z,33.9
2018-09-15T01:29:35.477Z,33.9
2018-09-15T01:30:37.912Z,33.8
2018-09-15T01:31:40.333Z,33.8
2018-09-15T01:32:42.763Z,33.8
2018-09-15T01:33:44.656Z,34
2018-09-15T01:34:47.089Z,33.9
2018-09-15T01:35:49.223Z,33.8
2018-09-15T01:36:51.659Z,33.9
2018-09-15T01:37:54.091Z,34
2018-09-15T01:38:56.524Z,33.7
2018-09-15T01:39:58.974Z,33.9
2018-09-15T01:41:01.421Z,33.9
2018-09-15T01:42:03.852Z,33.8
2018-09-15T01:43:06.285Z,33.7
2018-09-15T01:44:08.717Z,33.8
2018-09-15T01:45:11.146Z,33.8
2018-09-15T01:46:13.576Z,33.9
2018-09-15T01:47:15.994Z,33.9
2018-09-15T01:48:18.432Z,33.9
2018-09-15T01:49:20.859Z,33.9
2018-09-15T01:50:23.288Z,33.9
2018-09-15T01:51:25.716Z,33.8
2018-09-15T01:52:28.146Z,34
2018-09-15T01:53:30.593Z,33.9
2018-09-15T01:54:33.041Z,34
2018-09-15T01:55:35.194Z,33.8
2018-09-15T01:56:37.631Z,33.9
2018-09-15T01:57:40.302Z,33.8
2018-09-15T01:58:42.675Z,33.9
2018-09-15T01:59:45.109Z,33.9
2018-09-15T02:00:47.284Z,33.9
2018-09-15T02:01:49.168Z,33.8
2018-09-15T02:02:51.595Z,33.9
2018-09-15T02:03:53.509Z,33.9
2018-09-15T02:04:55.942Z,33.9
2018-09-15T02:05:58.365Z,33.9
2018-09-15T02:07:00.507Z,33.9
2018-09-15T02:08:02.937Z,33.9
2018-09-15T02:09:05.361Z,33.9
2018-09-15T02:10:07.533Z,33.8
2018-09-15T02:11:09.958Z,33.9
2018-09-15T02:12:12.384Z,33.9
2018-09-15T02:13:14.815Z,33.9
2018-09-15T02:14:17.247Z,34
2018-09-15T02:15:19.695Z,33.9
2018-09-15T02:16:22.137Z,33.9
2018-09-15T02:17:24.565Z,33.9
2018-09-15T02:18:27.006Z,33.9
2018-09-15T02:19:29.439Z,33.8
2018-09-15T02:20:31.863Z,33.8
2018-09-15T02:21:34.025Z,33.9
2018-09-15T02:22:36.597Z,34
2018-09-15T02:23:39.408Z,33.9
2018-09-15T02:24:41.843Z,33.9
2018-09-15T02:25:44.292Z,33.9
2018-09-15T02:26:46.725Z,33.9
2018-09-15T02:27:49.155Z,34
2018-09-15T02:28:51.602Z,33.9
2018-09-15T02:29:54.053Z,33.9
2018-09-15T02:30:56.209Z,33.9
2018-09-15T02:31:58.645Z,33.8
2018-09-15T02:33:01.101Z,33.9
2018-09-15T02:34:03.524Z,34
2018-09-15T02:35:05.961Z,33.8
2018-09-15T02:36:08.397Z,33.9
2018-09-15T02:37:10.838Z,34
2018-09-15T02:38:13.275Z,33.7
2018-09-15T02:39:15.710Z,34
2018-09-15T02:40:17.857Z,34
2018-09-15T02:41:20.285Z,34
2018-09-15T02:42:22.717Z,33.9
2018-09-15T02:43:25.154Z,33.9
2018-09-15T02:44:27.594Z,34
2018-09-15T02:45:29.753Z,33.9
2018-09-15T02:46:32.186Z,33.9
2018-09-15T02:47:34.336Z,33.9
2018-09-15T02:48:36.760Z,34
2018-09-15T02:49:39.192Z,33.9
2018-09-15T02:50:41.617Z,34
2018-09-15T02:51:44.056Z,33.9
2018-09-15T02:52:46.486Z,33.8
2018-09-15T02:53:48.918Z,33.9
2018-09-15T02:54:51.570Z,33.9
2018-09-15T02:55:54.692Z,33.9
2018-09-15T02:56:57.126Z,33.9
2018-09-15T02:57:59.565Z,34
2018-09-15T02:59:01.999Z,34
2018-09-15T03:00:04.439Z,33.9
2018-09-15T03:01:06.588Z,33.9
2018-09-15T03:02:09.040Z,33.9
2018-09-15T03:03:11.469Z,33.9
2018-09-15T03:04:13.897Z,33.8
2018-09-15T03:05:16.326Z,34
2018-09-15T03:06:18.758Z,33.8
2018-09-15T03:07:21.214Z,33.8
2018-09-15T03:08:23.346Z,33.7
2018-09-15T03:09:25.779Z,33.7
2018-09-15T03:10:28.213Z,33.8
2018-09-15T03:11:30.642Z,33.8
2018-09-15T03:12:33.084Z,33.7
2018-09-15T03:13:35.511Z,33.6
2018-09-15T03:14:37.944Z,33.7
2018-09-15T03:15:40.370Z,33.7
2018-09-15T03:16:42.804Z,33.7
2018-09-15T03:17:44.964Z,33.6
2018-09-15T03:18:47.406Z,33.7
2018-09-15T03:19:49.541Z,33.6
2018-09-15T03:20:52.019Z,33.7
2018-09-15T03:21:54.448Z,33.6
2018-09-15T03:22:56.611Z,33.8
2018-09-15T03:23:59.033Z,33.6
2018-09-15T03:25:01.179Z,33.6
2018-09-15T03:26:03.604Z,33.7
2018-09-15T03:27:06.043Z,33.8
2018-09-15T03:28:08.474Z,33.6
2018-09-15T03:29:10.631Z,33.6
2018-09-15T03:30:12.797Z,33.6
2018-09-15T03:31:14.948Z,33.6
2018-09-15T03:32:17.376Z,33.5
2018-09-15T03:33:19.811Z,33.6
2018-09-15T03:34:22.248Z,33.6
2018-09-15T03:35:24.686Z,33.7
2018-09-15T03:36:27.105Z,33.5
2018-09-15T03:37:29.538Z,33.5
2018-09-15T03:38:31.968Z,33.6
2018-09-15T03:39:33.836Z,33.5
2018-09-15T03:40:36.268Z,33.5
2018-09-15T03:41:39.016Z,33.5
2018-09-15T03:42:42.312Z,33.6
2018-09-15T03:43:44.778Z,33.6
2018-09-15T03:44:47.219Z,33.6
2018-09-15T03:45:49.660Z,33.5
2018-09-15T03:46:52.099Z,33.6
2018-09-15T03:47:54.519Z,33.5
2018-09-15T03:48:56.949Z,33.5
2018-09-15T03:49:59.379Z,33.6
2018-09-15T03:51:01.806Z,33.5
2018-09-15T03:52:03.948Z,33.5
2018-09-15T03:53:06.376Z,33.5
2018-09-15T03:54:08.808Z,33.6
2018-09-15T03:55:10.962Z,33.5
2018-09-15T03:56:13.126Z,33.5
2018-09-15T03:57:15.560Z,33.5
2018-09-15T03:58:17.993Z,33.5
2018-09-15T03:59:20.425Z,33.4
2018-09-15T04:00:22.865Z,33.5
2018-09-15T04:01:25.309Z,33.4
2018-09-15T04:02:27.449Z,33.5
2018-09-15T04:03:29.880Z,33.4
2018-09-15T04:04:32.315Z,33.5
2018-09-15T04:05:34.749Z,33.4
2018-09-15T04:06:37.175Z,33.5
2018-09-15T04:07:39.602Z,33.4
2018-09-15T04:08:42.044Z,33.5
2018-09-15T04:09:44.220Z,33.4
2018-09-15T04:10:46.644Z,33.4
2018-09-15T04:11:49.084Z,33.5
2018-09-15T04:12:51.523Z,33.4
2018-09-15T04:13:53.955Z,33.5
2018-09-15T04:14:56.392Z,33.4
2018-09-15T04:15:58.819Z,33.4
2018-09-15T04:17:01.249Z,33.4
2018-09-15T04:18:03.678Z,33.5
2018-09-15T04:19:05.828Z,33.5
2018-09-15T04:20:08.276Z,33.5
2018-09-15T04:21:10.694Z,33.4
2018-09-15T04:22:13.176Z,33.4
2018-09-15T04:23:15.618Z,33.5
2018-09-15T04:24:18.081Z,33.5
2018-09-15T04:25:20.516Z,33.5
2018-09-15T04:26:22.945Z,33.4
2018-09-15T04:27:25.381Z,33.4
2018-09-15T04:28:28.019Z,33.4
2018-09-15T04:29:30.914Z,33.3
2018-09-15T04:30:33.348Z,33.5
2018-09-15T04:31:35.775Z,33.5
2018-09-15T04:32:37.388Z,33.5
2018-09-15T04:33:39.541Z,33.5
2018-09-15T04:34:41.972Z,33.4
2018-09-15T04:35:44.132Z,33.5
2018-09-15T04:36:46.564Z,33.5
2018-09-15T04:37:48.750Z,33.4
2018-09-15T04:38:50.928Z,33.5
2018-09-15T04:39:53.063Z,33.3
2018-09-15T04:40:55.492Z,33.4
2018-09-15T04:41:57.375Z,33.4
2018-09-15T04:42:59.810Z,33.4
2018-09-15T04:44:02.237Z,33.5
2018-09-15T04:45:04.671Z,33.4
2018-09-15T04:46:07.103Z,33.5
2018-09-15T04:47:09.569Z,33.4
2018-09-15T04:48:12.008Z,33.4
2018-09-15T04:49:14.174Z,33.4
2018-09-15T04:50:16.614Z,33.5
2018-09-15T04:51:19.047Z,33.4
2018-09-15T04:52:21.477Z,33.4
2018-09-15T04:53:23.906Z,33.4
2018-09-15T04:54:26.345Z,33.5
2018-09-15T04:55:28.775Z,33.4
2018-09-15T04:56:31.212Z,33.4
2018-09-15T04:57:33.387Z,33.5
2018-09-15T04:58:35.902Z,33.4
2018-09-15T04:59:38.418Z,33.5
2018-09-15T05:00:40.849Z,33.5
2018-09-15T05:01:43.275Z,33.5
2018-09-15T05:02:45.710Z,33.5
2018-09-15T05:03:48.145Z,33.4
2018-09-15T05:04:50.590Z,33.5
2018-09-15T05:05:52.732Z,33.4
2018-09-15T05:06:55.167Z,33.4
2018-09-15T05:07:57.640Z,33.3
2018-09-15T05:09:00.063Z,33.3
2018-09-15T05:10:02.492Z,33.2
2018-09-15T05:11:04.918Z,33.4
2018-09-15T05:12:07.366Z,33.3
2018-09-15T05:13:09.800Z,33.4
2018-09-15T05:14:12.237Z,33.4
2018-09-15T05:15:14.679Z,33.3
2018-09-15T05:16:17.116Z,33.4
2018-09-15T05:17:19.545Z,33.4
2018-09-15T05:18:21.990Z,33.3
2018-09-15T05:19:24.420Z,33.4
2018-09-15T05:20:26.847Z,33.5
2018-09-15T05:21:28.992Z,33.4
2018-09-15T05:22:31.436Z,33.2
2018-09-15T05:23:33.884Z,33.3
2018-09-15T05:24:36.057Z,33.3
2018-09-15T05:25:38.701Z,33.3
2018-09-15T05:26:41.134Z,33.3
2018-09-15T05:27:43.019Z,33.4
2018-09-15T05:28:45.452Z,33.3
2018-09-15T05:29:47.611Z,33.3
2018-09-15T05:30:50.048Z,33.2
2018-09-15T05:31:52.472Z,33.2
2018-09-15T05:32:54.909Z,33.3
2018-09-15T05:33:57.378Z,33.2
2018-09-15T05:34:59.809Z,33.3
2018-09-15T05:36:02.226Z,33.3
2018-09-15T05:37:04.400Z,33.3
2018-09-15T05:38:07.085Z,33.3
2018-09-15T05:39:09.526Z,33.2
2018-09-15T05:40:12.007Z,33.2
2018-09-15T05:41:14.431Z,33.2
2018-09-15T05:42:16.853Z,33.2
2018-09-15T05:43:19.282Z,33.3
2018-09-15T05:44:21.707Z,33.2
2018-09-15T05:45:24.147Z,33.3
2018-09-15T05:46:26.596Z,33.3
2018-09-15T05:47:29.029Z,33.2
2018-09-15T05:48:31.176Z,33.3
2018-09-15T05:49:33.370Z,33.3
2018-09-15T05:50:35.938Z,33.4
2018-09-15T05:51:38.384Z,33.2
2018-09-15T05:52:40.831Z,33.1
2018-09-15T05:53:43.290Z,33.3
2018-09-15T05:54:45.445Z,33.2
2018-09-15T05:55:47.894Z,33.1
2018-09-15T05:56:50.036Z,33.3
2018-09-15T05:57:52.480Z,33.2
2018-09-15T05:58:54.902Z,33.3
2018-09-15T05:59:57.336Z,33.2
2018-09-15T06:00:59.213Z,33.2
2018-09-15T06:02:01.665Z,33.2
2018-09-15T06:03:04.114Z,33.3
2018-09-15T06:04:06.539Z,33.1
2018-09-15T06:05:09.009Z,33.1
2018-09-15T06:06:11.456Z,33.1
2018-09-15T06:07:13.884Z,33.2
2018-09-15T06:08:16.324Z,33.1
2018-09-15T06:09:18.859Z,33.2
2018-09-15T06:10:21.287Z,33.1
2018-09-15T06:11:23.858Z,33.1
2018-09-15T06:12:26.011Z,33.2
2018-09-15T06:13:28.462Z,33.1
2018-09-15T06:14:30.893Z,33.2
2018-09-15T06:15:33.327Z,33.1
2018-09-15T06:16:35.758Z,33
2018-09-15T06:17:38.188Z,33.1
2018-09-15T06:18:40.638Z,33.1
2018-09-15T06:19:43.070Z,33.1
2018-09-15T06:20:45.494Z,33
2018-09-15T06:21:47.939Z,33.2
2018-09-15T06:22:50.402Z,33.1
2018-09-15T06:23:52.823Z,33.2
2018-09-15T06:24:54.952Z,33.2
2018-09-15T06:25:57.387Z,33.1
2018-09-15T06:26:59.815Z,33.1
2018-09-15T06:28:02.267Z,33.1
2018-09-15T06:29:04.686Z,33.2
2018-09-15T06:30:07.127Z,33.1
2018-09-15T06:31:09.604Z,33
2018-09-15T06:32:12.158Z,33.3
2018-09-15T06:33:14.672Z,33.1
2018-09-15T06:34:17.138Z,33.2
2018-09-15T06:35:19.285Z,33.1
2018-09-15T06:36:21.856Z,33.2
2018-09-15T06:37:24.663Z,33.1
2018-09-15T06:38:27.089Z,33.1
2018-09-15T06:39:29.678Z,33.1
2018-09-15T06:40:32.317Z,33.2
2018-09-15T06:41:34.748Z,33.1
2018-09-15T06:42:37.177Z,33.1
2018-09-15T06:43:39.615Z,33.1
2018-09-15T06:44:42.046Z,33.1
2018-09-15T06:45:44.706Z,33.2
2018-09-15T06:46:47.654Z,33.1
2018-09-15T06:47:49.821Z,33.1
2018-09-15T06:48:51.777Z,33.2
2018-09-15T06:49:54.273Z,33.2
2018-09-15T06:50:56.516Z,33.2
2018-09-15T06:51:58.993Z,33.1
2018-09-15T06:53:01.154Z,33.1
2018-09-15T06:54:03.594Z,33.2
2018-09-15T06:55:06.058Z,33.1
2018-09-15T06:56:08.497Z,33
2018-09-15T06:57:10.943Z,33.1
2018-09-15T06:58:13.403Z,33.1
2018-09-15T06:59:15.566Z,33.1
2018-09-15T07:00:18.006Z,33.1
2018-09-15T07:01:20.157Z,33.1
2018-09-15T07:02:22.587Z,33.1
2018-09-15T07:03:25.038Z,33.2
2018-09-15T07:04:27.484Z,33.2
2018-09-15T07:05:29.941Z,33.2
2018-09-15T07:06:32.387Z,33.2
2018-09-15T07:07:34.835Z,33.2
2018-09-15T07:08:37.282Z,33.1
2018-09-15T07:09:39.176Z,33
2018-09-15T07:10:41.617Z,33
2018-09-15T07:11:44.054Z,33.2
2018-09-15T07:12:46.497Z,33.1
2018-09-15T07:13:48.922Z,33.1
2018-09-15T07:14:51.367Z,33.3
2018-09-15T07:15:53.804Z,33.1
2018-09-15T07:16:56.249Z,33.1
2018-09-15T07:17:58.409Z,33.2
2018-09-15T07:19:00.857Z,33.2
2018-09-15T07:20:03.139Z,33
2018-09-15T07:21:05.717Z,33.2
2018-09-15T07:22:08.163Z,33.1
2018-09-15T07:23:10.596Z,33.1
2018-09-15T07:24:12.749Z,33.1
2018-09-15T07:25:15.329Z,33.2
2018-09-15T07:26:17.766Z,33.2
2018-09-15T07:27:20.238Z,33.2
2018-09-15T07:28:22.676Z,33.2
2018-09-15T07:29:25.108Z,33.2
2018-09-15T07:30:27.568Z,33.1
2018-09-15T07:31:30.112Z,33.2
2018-09-15T07:32:32.960Z,33.2
2018-09-15T07:33:35.395Z,33.3
2018-09-15T07:34:37.837Z,33.2
2018-09-15T07:35:40.327Z,33.1
2018-09-15T07:36:42.765Z,33.1
2018-09-15T07:37:45.238Z,33.2
2018-09-15T07:38:48.194Z,33
2018-09-15T07:39:50.616Z,33.1
2018-09-15T07:40:53.069Z,33.1
2018-09-15T07:41:55.519Z,33.2
2018-09-15T07:42:57.961Z,33.2
2018-09-15T07:44:00.387Z,33.2
2018-09-15T07:45:02.823Z,33.2
2018-09-15T07:46:04.995Z,33.2
2018-09-15T07:47:07.425Z,33.1
2018-09-15T07:48:09.858Z,33.2
2018-09-15T07:49:12.297Z,33.2
2018-09-15T07:50:14.729Z,33.1
2018-09-15T07:51:17.155Z,33.2
2018-09-15T07:52:19.597Z,33.2
2018-09-15T07:53:22.028Z,33.2
2018-09-15T07:54:24.482Z,33.1
2018-09-15T07:55:26.658Z,33.2
2018-09-15T07:56:29.097Z,33.1
2018-09-15T07:57:31.701Z,33.1
2018-09-15T07:58:34.558Z,33.2
2018-09-15T07:59:36.990Z,33.2
2018-09-15T08:00:39.431Z,33.2
2018-09-15T08:01:41.860Z,33.1
2018-09-15T08:02:44.312Z,33.1
2018-09-15T08:03:46.744Z,33.2
2018-09-15T08:04:49.207Z,33.2
2018-09-15T08:05:51.647Z,33
2018-09-15T08:06:53.808Z,33.1
2018-09-15T08:07:55.972Z,33.1
2018-09-15T08:08:58.420Z,33.1
2018-09-15T08:10:00.848Z,33.1
2018-09-15T08:11:03.436Z,33.1
2018-09-15T08:12:05.756Z,33.1
2018-09-15T08:13:07.896Z,33.1
2018-09-15T08:14:10.333Z,33.1
2018-09-15T08:15:12.758Z,33.1
2018-09-15T08:16:15.186Z,33.2
2018-09-15T08:17:17.621Z,33.1
2018-09-15T08:18:20.063Z,33
2018-09-15T08:19:22.485Z,33.1
2018-09-15T08:20:24.634Z,33.1
2018-09-15T08:21:27.522Z,33.1
2018-09-15T08:22:30.077Z,33.1
2018-09-15T08:23:32.526Z,33.1
2018-09-15T08:24:34.963Z,33.2
2018-09-15T08:25:36.849Z,33
2018-09-15T08:26:39.296Z,33.1
2018-09-15T08:27:41.743Z,33.1
2018-09-15T08:28:44.209Z,33
2018-09-15T08:29:46.399Z,33.2
2018-09-15T08:30:48.827Z,33
2018-09-15T08:31:51.420Z,33.1
2018-09-15T08:32:53.953Z,33.1
2018-09-15T08:33:56.397Z,33.1
2018-09-15T08:34:58.839Z,33.1
2018-09-15T08:36:01.267Z,33
2018-09-15T08:37:03.703Z,33.1
2018-09-15T08:38:06.130Z,33
2018-09-15T08:39:08.336Z,33
2018-09-15T08:40:10.768Z,33
2018-09-15T08:41:13.280Z,33.1
2018-09-15T08:42:15.788Z,33
2018-09-15T08:43:18.245Z,33
2018-09-15T08:44:20.700Z,33.1
2018-09-15T08:45:23.139Z,33.1
2018-09-15T08:46:25.572Z,33.1
2018-09-15T08:47:27.995Z,33
2018-09-15T08:48:30.437Z,33
2018-09-15T08:49:32.865Z,33.1
2018-09-15T08:50:35.028Z,33.1
2018-09-15T08:51:37.462Z,32.9
2018-09-15T08:52:39.923Z,33
2018-09-15T08:53:42.090Z,33
2018-09-15T08:54:43.999Z,33.1
2018-09-15T08:55:46.190Z,33
2018-09-15T08:56:48.058Z,33
2018-09-15T08:57:49.681Z,33.1
2018-09-15T08:58:51.845Z,33
2018-09-15T08:59:54.287Z,33
2018-09-15T09:00:56.432Z,32.9
2018-09-15T09:01:58.869Z,33.1
2018-09-15T09:03:01.043Z,33.1
2018-09-15T09:04:03.209Z,33
2018-09-15T09:05:05.642Z,33.1
2018-09-15T09:06:08.125Z,33.1
2018-09-15T09:07:10.551Z,33
2018-09-15T09:08:12.701Z,33
2018-09-15T09:09:15.123Z,33
2018-09-15T09:10:17.639Z,33.1
2018-09-15T09:11:20.339Z,33.1
2018-09-15T09:12:22.776Z,33.1
2018-09-15T09:13:25.205Z,33
2018-09-15T09:14:27.639Z,33.1
2018-09-15T09:15:29.535Z,33.1
2018-09-15T09:16:31.981Z,33
2018-09-15T09:17:34.472Z,33
2018-09-15T09:18:36.956Z,33.1
2018-09-15T09:19:39.385Z,33
2018-09-15T09:20:41.833Z,33
2018-09-15T09:21:44.017Z,33
2018-09-15T09:22:46.457Z,33.1
2018-09-15T09:23:48.912Z,33.1
2018-09-15T09:24:51.345Z,33.2
2018-09-15T09:25:53.868Z,33
2018-09-15T09:26:56.617Z,33
2018-09-15T09:27:58.767Z,33
2018-09-15T09:29:01.219Z,33.1
2018-09-15T09:30:03.364Z,33.1
2018-09-15T09:31:05.793Z,33.1
2018-09-15T09:32:08.267Z,33
2018-09-15T09:33:10.848Z,33.1
2018-09-15T09:34:12.840Z,33.1
2018-09-15T09:35:15.269Z,33.1
2018-09-15T09:36:17.717Z,33.1
2018-09-15T09:37:20.157Z,33
2018-09-15T09:38:22.755Z,33.1
2018-09-15T09:39:25.662Z,33.2
2018-09-15T09:40:28.090Z,33
2018-09-15T09:41:30.596Z,33.1
2018-09-15T09:42:33.388Z,33
2018-09-15T09:43:35.544Z,33
2018-09-15T09:44:37.991Z,33
2018-09-15T09:45:40.425Z,33
2018-09-15T09:46:42.861Z,33.1
2018-09-15T09:47:45.394Z,33
2018-09-15T09:48:47.578Z,33.1
2018-09-15T09:49:50.007Z,33
2018-09-15T09:50:52.458Z,33
2018-09-15T09:51:54.906Z,33
2018-09-15T09:52:57.347Z,33.1
2018-09-15T09:53:59.777Z,33.1
2018-09-15T09:55:02.208Z,33.1
2018-09-15T09:56:04.636Z,33
2018-09-15T09:57:07.071Z,33.1
2018-09-15T09:58:09.498Z,33
2018-09-15T09:59:11.938Z,33
2018-09-15T10:00:14.100Z,33
2018-09-15T10:01:16.680Z,33
2018-09-15T10:02:19.428Z,33
2018-09-15T10:03:21.864Z,33
2018-09-15T10:04:24.292Z,32.9
2018-09-15T10:05:26.731Z,33
2018-09-15T10:06:29.169Z,32.9
2018-09-15T10:07:31.652Z,33.1
2018-09-15T10:08:34.094Z,33
2018-09-15T10:09:36.535Z,33.1
2018-09-15T10:10:38.975Z,33
2018-09-15T10:11:41.421Z,33
2018-09-15T10:12:43.841Z,33
2018-09-15T10:13:46.271Z,33.1
2018-09-15T10:14:48.713Z,33
2018-09-15T10:15:51.304Z,33.1
2018-09-15T10:16:54.018Z,33.1
2018-09-15T10:17:56.449Z,33
2018-09-15T10:18:58.883Z,33.1
2018-09-15T10:20:01.043Z,33
2018-09-15T10:21:03.507Z,33.1
2018-09-15T10:22:05.957Z,33.1
2018-09-15T10:23:08.387Z,33.1
2018-09-15T10:24:10.840Z,33
2018-09-15T10:25:13.277Z,33
2018-09-15T10:26:15.719Z,33
2018-09-15T10:27:18.153Z,33.1
2018-09-15T10:28:20.302Z,33
2018-09-15T10:29:22.734Z,33.1
2018-09-15T10:30:25.166Z,33
2018-09-15T10:31:27.602Z,33
2018-09-15T10:32:30.035Z,32.9
2018-09-15T10:33:32.199Z,33.1
2018-09-15T10:34:34.696Z,33
2018-09-15T10:35:37.126Z,33
2018-09-15T10:36:39.590Z,33
2018-09-15T10:37:42.045Z,33.1
2018-09-15T10:38:44.476Z,33.1
2018-09-15T10:39:46.912Z,33.1
2018-09-15T10:40:49.361Z,33.2
2018-09-15T10:41:51.795Z,33.1
2018-09-15T10:42:54.236Z,33
2018-09-15T10:43:56.670Z,32.9
2018-09-15T10:44:58.839Z,33.1
2018-09-15T10:46:01.540Z,33
2018-09-15T10:47:04.579Z,33
2018-09-15T10:48:07.019Z,33.1
2018-09-15T10:49:09.458Z,33.2
2018-09-15T10:50:11.908Z,33
2018-09-15T10:51:14.119Z,33
2018-09-15T10:52:16.592Z,33
2018-09-15T10:53:19.302Z,33
2018-09-15T10:54:21.733Z,33.1
2018-09-15T10:55:24.162Z,33.1
2018-09-15T10:56:26.611Z,33.1
2018-09-15T10:57:28.782Z,33.1
2018-09-15T10:58:31.230Z,33.1
2018-09-15T10:59:33.664Z,33
2018-09-15T11:00:36.114Z,33.2
2018-09-15T11:01:38.630Z,33.1
2018-09-15T11:02:41.074Z,33.3
2018-09-15T11:03:43.515Z,33.1
2018-09-15T11:04:45.938Z,33.2
2018-09-15T11:05:48.472Z,33.2
2018-09-15T11:06:50.992Z,33.1
2018-09-15T11:07:53.429Z,33.1
2018-09-15T11:08:55.930Z,33.1
2018-09-15T11:09:58.371Z,33.1
2018-09-15T11:11:00.818Z,33.2
2018-09-15T11:12:03.259Z,33
2018-09-15T11:13:05.729Z,33.2
2018-09-15T11:14:07.952Z,33.2
2018-09-15T11:15:10.379Z,33.1
2018-09-15T11:16:12.819Z,33.1
2018-09-15T11:17:15.259Z,33
2018-09-15T11:18:17.690Z,33.1
2018-09-15T11:19:19.579Z,33.1
2018-09-15T11:20:22.022Z,33.2
2018-09-15T11:21:24.483Z,33.2
2018-09-15T11:22:27.083Z,33.1
2018-09-15T11:23:29.758Z,33.2
2018-09-15T11:24:31.675Z,33.1
2018-09-15T11:25:34.104Z,33.1
2018-09-15T11:26:36.560Z,33.2
2018-09-15T11:27:39.000Z,33.1
2018-09-15T11:28:41.378Z,33.1
2018-09-15T11:29:44.377Z,33.1
2018-09-15T11:30:46.806Z,33.1
2018-09-15T11:31:49.249Z,33
2018-09-15T11:32:51.422Z,33.2
2018-09-15T11:33:53.869Z,33.2
2018-09-15T11:34:56.354Z,33.2
2018-09-15T11:35:58.787Z,33.2
2018-09-15T11:37:00.945Z,33.1
2018-09-15T11:38:03.369Z,33.1
2018-09-15T11:39:05.819Z,33
2018-09-15T11:40:08.253Z,33
2018-09-15T11:41:09.963Z,33.1
2018-09-15T11:42:12.667Z,33.2
2018-09-15T11:43:15.100Z,33.1
2018-09-15T11:44:17.566Z,33.1
2018-09-15T11:45:20.016Z,33.1
2018-09-15T11:46:22.454Z,33.1
2018-09-15T11:47:24.886Z,33.1
2018-09-15T11:48:27.069Z,33.1
2018-09-15T11:49:29.512Z,33.2
2018-09-15T11:50:31.940Z,33
2018-09-15T11:51:34.368Z,33.2
2018-09-15T11:52:36.821Z,33.1
2018-09-15T11:53:39.310Z,33.2
2018-09-15T11:54:41.817Z,33.1
2018-09-15T11:55:44.258Z,33.1
2018-09-15T11:56:46.690Z,33.1
2018-09-15T11:57:49.116Z,33.2
2018-09-15T11:58:51.274Z,33.2
2018-09-15T11:59:53.776Z,33.1
2018-09-15T12:00:56.217Z,33.2
2018-09-15T12:01:58.740Z,33.1
2018-09-15T12:03:01.531Z,33.1
2018-09-15T12:04:03.957Z,33
2018-09-15T12:05:06.403Z,33.2
2018-09-15T12:06:08.835Z,33.2
2018-09-15T12:07:11.263Z,33.1
2018-09-15T12:08:13.693Z,33.2
2018-09-15T12:09:16.125Z,33.3
2018-09-15T12:10:18.580Z,33.3
2018-09-15T12:11:21.157Z,33.2
2018-09-15T12:12:23.312Z,33.2
2018-09-15T12:13:25.744Z,33.1
2018-09-15T12:14:28.206Z,33.2
2018-09-15T12:15:30.651Z,33.1
2018-09-15T12:16:33.086Z,33.1
2018-09-15T12:17:35.528Z,33.2
2018-09-15T12:18:37.971Z,33.3
2018-09-15T12:19:40.397Z,33.2
2018-09-15T12:20:42.820Z,33.2
2018-09-15T12:21:45.402Z,33.2
2018-09-15T12:22:48.259Z,33.1
2018-09-15T12:23:50.694Z,33.2
2018-09-15T12:24:53.149Z,33.2
2018-09-15T12:25:55.307Z,33.2
2018-09-15T12:26:57.743Z,33.2
2018-09-15T12:28:00.465Z,33.1
2018-09-15T12:29:03.226Z,33.2
2018-09-15T12:30:05.668Z,33.2
2018-09-15T12:31:08.111Z,33.2
2018-09-15T12:32:10.547Z,33.2
2018-09-15T12:33:12.968Z,33.2
2018-09-15T12:34:15.402Z,33.1
2018-09-15T12:35:17.827Z,33.3
2018-09-15T12:36:19.983Z,33.2
2018-09-15T12:37:22.459Z,33.2
2018-09-15T12:38:24.959Z,33
2018-09-15T12:39:27.623Z,33.2
2018-09-15T12:40:30.344Z,33.2
2018-09-15T12:41:32.791Z,33.2
2018-09-15T12:42:35.218Z,33.2
2018-09-15T12:43:37.394Z,33.3
2018-09-15T12:44:39.832Z,33.3
2018-09-15T12:45:42.289Z,33.3
2018-09-15T12:46:44.730Z,33.2
2018-09-15T12:47:47.180Z,33.2
2018-09-15T12:48:49.602Z,33.3
2018-09-15T12:49:52.042Z,33.2
2018-09-15T12:50:54.517Z,33.1
2018-09-15T12:51:57.122Z,33.2
2018-09-15T12:52:59.899Z,33.3
2018-09-15T12:54:02.349Z,33.4
2018-09-15T12:55:04.794Z,33.4
2018-09-15T12:56:07.236Z,33.4
2018-09-15T12:57:09.671Z,33.3
2018-09-15T12:58:11.847Z,33.4
2018-09-15T12:59:14.027Z,33.3
2018-09-15T13:00:16.462Z,33.4
2018-09-15T13:01:18.914Z,33.5
2018-09-15T13:02:21.349Z,33.4
2018-09-15T13:03:23.857Z,33.4
2018-09-15T13:04:26.328Z,33.3
2018-09-15T13:05:28.791Z,33.5
2018-09-15T13:06:31.158Z,33.4
2018-09-15T13:07:34.109Z,33.4
2018-09-15T13:08:35.987Z,33.4
2018-09-15T13:09:38.414Z,33.4
2018-09-15T13:10:40.870Z,33.4
2018-09-15T13:11:43.308Z,33.4
2018-09-15T13:12:45.759Z,33.4
2018-09-15T13:13:48.199Z,33.4
2018-09-15T13:14:50.674Z,33.5
2018-09-15T13:15:53.235Z,33.4
2018-09-15T13:16:55.666Z,33.4
2018-09-15T13:17:58.118Z,33.5
2018-09-15T13:19:00.288Z,33.3
2018-09-15T13:20:02.726Z,33.3
2018-09-15T13:21:05.164Z,33.4
2018-09-15T13:22:07.594Z,33.4
2018-09-15T13:23:10.062Z,33.3
2018-09-15T13:24:12.503Z,33.4
2018-09-15T13:25:14.948Z,33.4
2018-09-15T13:26:17.187Z,33.3
2018-09-15T13:27:19.653Z,33.5
2018-09-15T13:28:22.081Z,33.5
2018-09-15T13:29:24.654Z,33.4
2018-09-15T13:30:27.015Z,33.4
2018-09-15T13:31:29.473Z,33.4
2018-09-15T13:32:31.909Z,33.5
2018-09-15T13:33:34.353Z,33.4
2018-09-15T13:34:36.831Z,33.4
2018-09-15T13:35:39.288Z,33.4
2018-09-15T13:36:41.724Z,33.5
2018-09-15T13:37:44.096Z,33.4
2018-09-15T13:38:46.676Z,33.5
2018-09-15T13:39:49.127Z,33.4
2018-09-15T13:40:51.600Z,33.5
2018-09-15T13:41:54.047Z,33.5
2018-09-15T13:42:56.478Z,33.5
2018-09-15T13:43:58.927Z,33.5
2018-09-15T13:45:01.368Z,33.5
2018-09-15T13:46:03.809Z,33.5
2018-09-15T13:47:05.970Z,33.5
2018-09-15T13:48:08.402Z,33.5
2018-09-15T13:49:10.843Z,33.5
2018-09-15T13:50:13.284Z,33.5
2018-09-15T13:51:15.767Z,33.5
2018-09-15T13:52:18.212Z,33.5
2018-09-15T13:53:20.799Z,33.5
2018-09-15T13:54:23.748Z,33.5
2018-09-15T13:55:25.938Z,33.6
2018-09-15T13:56:28.389Z,33.6
2018-09-15T13:57:30.839Z,33.6